Time;durP1;ratioP1;P1;durP2;ratioP2;P2;SDS_P1;SDS_P2;PMS_P1;PMS_P2;Temp;Humidity;BMP_temperature;BMP_pressure;BME280_temperature;BME280_humidity;BME280_pressure;Samples;Min_cycle;Max_cycle;Signal;HPM_P1;HPM_P2
2022/04/28 00:01:51;;;;;;;64.40;49.80;;;17.40;57.00;;;;;;4920997;28;91173;-68
2022/04/28 00:04:16;;;;;;;64.65;49.47;;;17.40;56.80;;;;;;4920301;28;90331;-68
2022/04/28 00:06:42;;;;;;;63.22;49.67;;;17.40;56.70;;;;;;4919039;28;90125;-70
2022/04/28 00:09:08;;;;;;;64.28;49.40;;;17.30;56.60;;;;;;4924270;28;91371;-68
2022/04/28 00:11:34;;;;;;;62.67;49.17;;;17.30;56.70;;;;;;4924392;28;89913;-68
2022/04/28 00:14:00;;;;;;;64.00;49.47;;;17.30;56.60;;;;;;4926274;28;90157;-68
2022/04/28 00:16:26;;;;;;;63.92;49.47;;;17.40;56.70;;;;;;4922574;28;89860;-68
2022/04/28 00:18:52;;;;;;;64.15;49.53;;;17.40;56.70;;;;;;4929285;28;90855;-68
2022/04/28 00:21:17;;;;;;;65.80;50.05;;;17.30;56.60;;;;;;4919126;28;91010;-69
2022/04/28 00:23:43;;;;;;;64.18;49.67;;;17.30;56.70;;;;;;4918379;28;90126;-68
2022/04/28 00:26:09;;;;;;;62.72;49.58;;;17.30;56.80;;;;;;4915438;28;89537;-68
2022/04/28 00:28:34;;;;;;;65.28;49.88;;;17.30;56.70;;;;;;4928847;28;90029;-68
2022/04/28 00:31:00;;;;;;;63.15;49.65;;;17.20;56.60;;;;;;4926894;28;90432;-72
2022/04/28 00:33:27;;;;;;;63.53;49.47;;;17.30;56.60;;;;;;4923731;28;91780;-69
2022/04/28 00:35:54;;;;;;;63.47;49.45;;;17.30;56.60;;;;;;4915761;28;90770;-71
2022/04/28 00:38:19;;;;;;;63.25;49.53;;;17.30;56.70;;;;;;4923562;28;93698;-69
2022/04/28 00:40:45;;;;;;;62.42;49.30;;;17.30;56.60;;;;;;4922129;28;95349;-69
2022/04/28 00:43:20;;;;;;;63.33;49.55;;;17.20;56.60;;;;;;4921354;28;92235;-68
2022/04/28 00:45:49;;;;;;;63.47;49.53;;;17.20;56.70;;;;;;4927381;28;89555;-69
2022/04/28 00:51:02;;;;;;;64.20;49.30;;;17.20;56.50;;;;;;4927404;28;88877;-69
2022/04/28 00:53:30;;;;;;;65.03;49.85;;;17.20;56.60;;;;;;4921466;28;90831;-69
2022/04/28 00:55:59;;;;;;;63.72;49.45;;;17.20;56.60;;;;;;4925527;28;89887;-68
2022/04/28 00:58:25;;;;;;;63.35;49.83;;;17.20;56.70;;;;;;4923541;28;91292;-69
2022/04/28 01:00:55;;;;;;;63.17;49.67;;;17.20;56.60;;;;;;4921599;28;89996;-69
2022/04/28 01:03:21;;;;;;;64.05;49.80;;;17.20;56.50;;;;;;4912887;28;90615;-68
2022/04/28 01:05:47;;;;;;;61.95;49.35;;;17.20;56.50;;;;;;4913391;28;91031;-68
2022/04/28 01:08:13;;;;;;;63.10;49.50;;;17.20;56.50;;;;;;4923495;28;90141;-69
2022/04/28 01:10:39;;;;;;;63.97;49.47;;;17.10;56.30;;;;;;4929975;28;90123;-69
2022/04/28 01:13:05;;;;;;;62.50;49.35;;;17.10;56.40;;;;;;4920157;28;92279;-68
2022/04/28 01:15:45;;;;;;;65.10;49.65;;;17.10;56.60;;;;;;4923972;28;90512;-69
2022/04/28 01:18:11;;;;;;;63.67;49.60;;;17.10;56.40;;;;;;4926153;28;90776;-68
2022/04/28 01:20:36;;;;;;;63.17;49.35;;;17.10;56.50;;;;;;4926531;28;90006;-68
2022/04/28 01:23:06;;;;;;;64.43;49.92;;;17.10;56.20;;;;;;4921302;28;94232;-68
2022/04/28 01:25:32;;;;;;;62.67;49.40;;;17.10;56.50;;;;;;4923125;28;91006;-69
2022/04/28 01:27:58;;;;;;;62.10;49.15;;;17.00;56.70;;;;;;4922262;28;90530;-68
2022/04/28 01:30:24;;;;;;;63.15;49.60;;;17.00;56.40;;;;;;4930237;28;89883;-68
2022/04/28 01:32:51;;;;;;;63.55;49.55;;;17.00;56.30;;;;;;4923767;28;90336;-68
2022/04/28 01:35:17;;;;;;;64.00;49.55;;;17.00;56.40;;;;;;4914824;28;92511;-68
2022/04/28 01:37:43;;;;;;;63.67;49.67;;;17.00;56.40;;;;;;4921642;28;89878;-69
2022/04/28 01:40:11;;;;;;;62.10;49.38;;;17.00;56.20;;;;;;4925522;28;96229;-69
2022/04/28 01:42:53;;;;;;;63.45;49.35;;;17.00;56.40;;;;;;4921240;28;89914;-68
2022/04/28 01:45:19;;;;;;;;;;;17.00;56.30;;;;;;4927238;28;90056;-69
2022/04/28 01:47:44;;;;;;;63.95;49.58;;;16.90;56.40;;;;;;4927118;28;90638;-69
2022/04/28 01:50:12;;;;;;;64.90;49.35;;;16.90;56.30;;;;;;4920299;28;92360;-68
2022/04/28 01:55:23;;;;;;;62.55;49.45;;;16.90;56.20;;;;;;4919118;28;90041;-68
2022/04/28 01:57:49;;;;;;;62.28;49.17;;;16.90;56.20;;;;;;4921123;28;91255;-69
2022/04/28 02:00:15;;;;;;;63.05;49.72;;;16.90;56.40;;;;;;4922528;28;90424;-69
2022/04/28 02:02:42;;;;;;;63.28;49.65;;;16.90;56.50;;;;;;4922721;28;90497;-69
2022/04/28 02:05:09;;;;;;;63.53;49.40;;;16.90;56.40;;;;;;4922904;28;91924;-68
2022/04/28 02:07:35;;;;;;;63.97;49.55;;;16.90;56.50;;;;;;4922559;28;93138;-68
2022/04/28 02:10:03;;;;;;;61.58;49.13;;;16.90;56.30;;;;;;4918970;28;90665;-69
2022/04/28 02:12:29;;;;;;;63.30;49.25;;;16.90;56.20;;;;;;4919657;28;92403;-70
2022/04/28 02:14:54;;;;;;;63.17;49.35;;;16.90;56.30;;;;;;4919591;28;92636;-68
2022/04/28 02:17:25;;;;;;;62.63;49.28;;;16.90;56.40;;;;;;4927488;28;90068;-68
2022/04/28 02:19:51;;;;;;;63.28;49.40;;;16.90;56.20;;;;;;4930480;28;90017;-68
2022/04/28 02:22:17;;;;;;;64.30;49.70;;;16.80;56.30;;;;;;4932370;28;92103;-68
2022/04/28 02:24:43;;;;;;;62.03;49.13;;;16.80;56.10;;;;;;4935488;28;89841;-68
2022/04/28 02:27:08;;;;;;;63.08;49.40;;;16.80;56.40;;;;;;4935514;28;90225;-68
2022/04/28 02:29:34;;;;;;;63.47;49.47;;;16.80;56.20;;;;;;4936782;28;89648;-68
2022/04/28 02:32:01;;;;;;;62.15;49.38;;;16.80;56.40;;;;;;4921263;28;92204;-68
2022/04/28 02:34:27;;;;;;;63.35;49.28;;;16.70;56.30;;;;;;4912609;28;90941;-68
2022/04/28 02:36:53;;;;;;;62.35;49.55;;;16.80;56.30;;;;;;4917475;28;91049;-68
2022/04/28 02:39:19;;;;;;;62.72;49.45;;;16.70;56.00;;;;;;4926607;28;89444;-68
2022/04/28 02:41:46;;;;;;;62.35;49.17;;;16.80;56.40;;;;;;4917827;28;89886;-69
2022/04/28 02:44:13;;;;;;;62.67;49.47;;;16.70;56.30;;;;;;4927637;28;90436;-68
2022/04/28 02:46:48;;;;;;;62.00;49.42;;;16.80;56.10;;;;;;4913389;28;90878;-68
2022/04/28 02:49:15;;;;;;;64.22;49.65;;;16.70;56.10;;;;;;4930187;28;89969;-68
2022/04/28 02:51:41;;;;;;;62.15;49.25;;;16.70;56.20;;;;;;4923741;28;90449;-68
2022/04/28 02:54:07;;;;;;;64.43;49.72;;;16.70;56.20;;;;;;4914106;28;90334;-68
2022/04/28 02:56:33;;;;;;;62.85;49.28;;;16.70;56.30;;;;;;4927153;28;90347;-67
2022/04/28 02:58:59;;;;;;;63.30;49.25;;;16.70;56.30;;;;;;4928329;28;91279;-69
2022/04/28 03:01:26;;;;;;;61.67;49.10;;;16.70;56.20;;;;;;4920167;28;91628;-68
2022/04/28 03:03:52;;;;;;;63.55;49.15;;;16.70;56.30;;;;;;4914335;28;92907;-68
2022/04/28 03:11:48;;;;;;;62.72;49.60;;;16.60;56.10;;;;;;4929783;28;89770;-68
2022/04/28 03:14:15;;;;;;;62.17;49.20;;;16.60;56.30;;;;;;4922426;28;95226;-68
2022/04/28 03:16:41;;;;;;;62.70;49.28;;;16.60;56.10;;;;;;4919738;28;91464;-68
2022/04/28 03:19:07;;;;;;;61.90;49.13;;;16.60;56.10;;;;;;4916286;28;92265;-68
2022/04/28 03:21:33;;;;;;;62.45;49.22;;;16.60;56.10;;;;;;4920046;28;89893;-68
2022/04/28 03:23:59;;;;;;;63.38;49.38;;;16.60;56.20;;;;;;4918808;28;91981;-68
2022/04/28 03:26:24;;;;;;;62.22;49.45;;;16.60;56.00;;;;;;4925040;28;91865;-68
2022/04/28 03:28:50;;;;;;;63.22;49.30;;;16.60;56.20;;;;;;4912482;28;93774;-68
2022/04/28 03:31:16;;;;;;;62.83;49.40;;;16.50;56.00;;;;;;4912468;28;90322;-67
2022/04/28 03:33:41;;;;;;;63.13;49.20;;;16.50;56.00;;;;;;4919518;28;91695;-68
2022/04/28 03:38:52;;;;;;;63.80;49.35;;;16.50;56.00;;;;;;4919537;28;89966;-68
2022/04/28 03:41:18;;;;;;;62.00;49.22;;;16.50;56.30;;;;;;4911203;28;90903;-68
2022/04/28 03:43:44;;;;;;;61.90;49.08;;;16.50;56.00;;;;;;4913920;28;91088;-69
2022/04/28 03:46:11;;;;;;;63.60;49.53;;;16.50;56.00;;;;;;4919927;28;90149;-68
2022/04/28 03:48:37;;;;;;;62.75;49.33;;;16.50;56.30;;;;;;4918608;28;90202;-68
2022/04/28 03:51:04;;;;;;;64.10;49.35;;;16.50;56.10;;;;;;4912638;28;96396;-68
2022/04/28 03:53:30;;;;;;;61.78;49.10;;;16.50;56.00;;;;;;4922763;28;89915;-68
2022/04/28 03:55:57;;;;;;;62.92;49.55;;;16.50;56.00;;;;;;4920352;28;90749;-68
2022/04/28 03:58:25;;;;;;;62.28;48.95;;;16.50;56.10;;;;;;4915439;28;90844;-68
2022/04/28 04:00:51;;;;;;;61.47;49.28;;;16.50;56.00;;;;;;4921557;28;92453;-68
2022/04/28 04:03:19;;;;;;;62.63;49.55;;;16.50;56.10;;;;;;4915157;28;95973;-68
2022/04/28 04:05:45;;;;;;;62.10;49.30;;;16.50;56.00;;;;;;4922273;28;90301;-68
2022/04/28 04:08:11;;;;;;;60.95;48.95;;;16.40;56.10;;;;;;4923698;28;90015;-69
2022/04/28 04:10:37;;;;;;;61.28;49.08;;;16.40;56.00;;;;;;4931045;28;90431;-68
2022/04/28 04:13:03;;;;;;;62.10;49.22;;;16.40;56.10;;;;;;4927908;28;90419;-69
2022/04/28 04:15:29;;;;;;;61.85;49.40;;;16.40;55.90;;;;;;4920610;28;91645;-69
2022/04/28 04:17:55;;;;;;;63.35;49.35;;;16.40;56.10;;;;;;4921864;28;91416;-69
2022/04/28 04:20:20;;;;;;;62.22;49.13;;;16.40;55.90;;;;;;4931035;28;89853;-69
2022/04/28 04:22:46;;;;;;;61.92;49.42;;;16.30;56.10;;;;;;4921392;28;91281;-69
2022/04/28 04:25:11;;;;;;;61.90;49.05;;;16.30;56.10;;;;;;4929501;28;90414;-68
2022/04/28 04:27:37;;;;;;;63.97;49.38;;;16.40;56.10;;;;;;4930598;28;90414;-68
2022/04/28 04:32:17;;;;;;;61.20;49.50;;;16.30;55.90;;;;;;4926596;28;94230;-67
2022/04/28 04:32:49;;;;;;;61.95;48.83;;;16.30;56.20;;;;;;4907368;28;90601;-67
2022/04/28 04:35:16;;;;;;;63.00;48.83;;;16.30;56.20;;;;;;4904466;28;90855;-68
2022/04/28 04:37:42;;;;;;;63.50;49.55;;;16.30;56.20;;;;;;4905571;28;90050;-68
2022/04/28 04:40:10;;;;;;;63.55;49.60;;;16.30;56.10;;;;;;4915953;28;91289;-68
2022/04/28 04:42:35;;;;;;;62.03;49.15;;;16.30;56.20;;;;;;4923689;28;92028;-68
2022/04/28 04:45:01;;;;;;;62.05;49.30;;;16.30;56.00;;;;;;4916048;28;92810;-68
2022/04/28 04:47:26;;;;;;;61.42;48.97;;;16.30;56.00;;;;;;4925735;28;90332;-68
2022/04/28 04:49:53;;;;;;;62.40;49.45;;;16.30;55.90;;;;;;4914767;28;93899;-68
2022/04/28 04:52:18;;;;;;;62.15;49.45;;;16.30;55.80;;;;;;4917831;28;90757;-69
2022/04/28 04:54:44;;;;;;;63.95;49.55;;;16.30;55.90;;;;;;4903360;28;92186;-68
2022/04/28 04:57:09;;;;;;;61.05;49.05;;;16.30;55.70;;;;;;4918581;28;90744;-67
2022/04/28 04:59:35;;;;;;;61.45;49.03;;;16.30;55.60;;;;;;4922748;28;89459;-68
2022/04/28 05:02:00;;;;;;;62.58;49.28;;;16.30;55.80;;;;;;4909935;28;90308;-68
2022/04/28 05:04:26;;;;;;;62.78;49.17;;;16.30;56.00;;;;;;4910944;28;91333;-67
2022/04/28 05:06:52;;;;;;;62.40;49.10;;;16.30;56.00;;;;;;4922375;28;93949;-68
2022/04/28 05:09:17;;;;;;;62.30;49.05;;;16.30;56.20;;;;;;4918338;28;90130;-66
2022/04/28 05:11:43;;;;;;;67.40;49.25;;;16.30;56.30;;;;;;4921887;28;92535;-67
2022/04/28 05:14:09;;;;;;;64.30;49.20;;;16.30;56.30;;;;;;4916478;28;95247;-68
2022/04/28 05:16:34;;;;;;;65.28;50.13;;;16.30;56.50;;;;;;4927289;28;95348;-68
2022/04/28 05:19:00;;;;;;;65.97;50.45;;;16.30;56.50;;;;;;4910472;28;91213;-67
2022/04/28 05:21:26;;;;;;;65.88;50.10;;;16.30;56.40;;;;;;4909875;28;91920;-67
2022/04/28 05:23:51;;;;;;;64.55;49.83;;;16.30;56.80;;;;;;4924747;28;90181;-67
2022/04/28 05:26:17;;;;;;;63.45;50.03;;;16.30;56.30;;;;;;4924469;28;90703;-67
2022/04/28 05:28:43;;;;;;;67.53;50.03;;;16.30;56.40;;;;;;4919593;28;93712;-67
2022/04/28 05:31:09;;;;;;;62.70;49.67;;;16.30;56.00;;;;;;4904117;28;90940;-67
2022/04/28 05:33:34;;;;;;;68.35;50.22;;;16.30;56.10;;;;;;4915797;28;91357;-67
2022/04/28 05:36:00;;;;;;;65.55;49.97;;;16.30;56.60;;;;;;4923992;28;90694;-70
2022/04/28 05:38:28;;;;;;;69.68;49.95;;;16.30;56.40;;;;;;4916629;28;93024;-69
2022/04/28 05:40:54;;;;;;;73.05;49.65;;;16.40;57.40;;;;;;4925242;28;89929;-70
2022/04/28 05:46:05;;;;;;;65.63;50.53;;;16.60;56.90;;;;;;4907521;28;89762;-69
2022/04/28 05:48:34;;;;;;;64.72;50.03;;;16.60;56.20;;;;;;4919977;28;90984;-72
2022/04/28 05:50:59;;;;;;;70.30;50.13;;;16.70;56.20;;;;;;4901822;28;90880;-69
2022/04/28 05:53:25;;;;;;;71.30;50.53;;;16.70;56.30;;;;;;4902101;28;94134;-69
2022/04/28 05:55:51;;;;;;;67.72;50.00;;;16.80;55.70;;;;;;4909199;28;92289;-68
2022/04/28 05:58:16;;;;;;;67.05;49.75;;;16.80;55.70;;;;;;4902671;28;91447;-70
2022/04/28 06:00:42;;;;;;;68.47;50.03;;;16.80;55.50;;;;;;4919167;28;90985;-70
2022/04/28 06:03:07;;;;;;;70.82;50.33;;;16.90;55.60;;;;;;4920266;28;91696;-70
2022/04/28 06:05:33;;;;;;;73.32;50.30;;;16.90;55.80;;;;;;4913838;28;96208;-71
2022/04/28 06:07:59;;;;;;;68.28;50.05;;;16.90;55.60;;;;;;4917528;28;91069;-70
2022/04/28 06:10:24;;;;;;;64.75;49.85;;;17.00;55.60;;;;;;4921498;28;92631;-69
2022/04/28 06:12:50;;;;;;;68.65;50.15;;;17.00;55.60;;;;;;4905969;28;92733;-70
2022/04/28 06:15:15;;;;;;;69.32;50.33;;;17.10;55.60;;;;;;4928328;28;89868;-70
2022/04/28 06:17:41;;;;;;;70.43;50.33;;;17.10;56.20;;;;;;4922051;28;91127;-71
2022/04/28 06:20:07;;;;;;;74.88;50.88;;;17.10;55.60;;;;;;4919617;28;91258;-71
2022/04/28 06:22:33;;;;;;;68.15;50.67;;;17.20;55.90;;;;;;4917902;28;90868;-71
2022/04/28 06:24:58;;;;;;;73.22;51.03;;;17.20;56.20;;;;;;4925859;28;91211;-72
2022/04/28 06:27:24;;;;;;;88.38;53.92;;;17.30;56.00;;;;;;4923602;28;91200;-72
2022/04/28 06:29:50;;;;;;;85.63;53.38;;;17.30;56.00;;;;;;4925196;28;95731;-71
2022/04/28 06:32:16;;;;;;;82.93;52.88;;;17.40;56.70;;;;;;4924392;28;91101;-71
2022/04/28 06:34:43;;;;;;;84.57;53.47;;;17.40;56.70;;;;;;4920459;28;89715;-73
2022/04/28 06:37:09;;;;;;;86.78;53.83;;;17.50;56.90;;;;;;4909719;28;90870;-73
2022/04/28 06:39:34;;;;;;;86.78;53.33;;;17.50;57.30;;;;;;4920861;28;90360;-72
2022/04/28 06:42:00;;;;;;;90.53;53.17;;;17.60;57.30;;;;;;4927055;28;91569;-72
2022/04/28 06:44:26;;;;;;;86.57;53.42;;;17.70;57.20;;;;;;4927961;28;90429;-72
2022/04/28 06:46:51;;;;;;;83.10;53.95;;;17.70;57.00;;;;;;4923303;28;91567;-73
2022/04/28 06:49:17;;;;;;;84.78;53.67;;;17.70;56.70;;;;;;4921903;28;90062;-73
2022/04/28 06:51:43;;;;;;;80.28;52.80;;;17.70;56.40;;;;;;4926395;28;89752;-73
2022/04/28 06:54:09;;;;;;;81.78;53.33;;;17.80;56.10;;;;;;4917426;28;91553;-73
2022/04/28 06:56:34;;;;;;;79.70;53.50;;;17.80;55.70;;;;;;4920417;28;95337;-73
2022/04/28 06:59:00;;;;;;;85.72;54.08;;;17.90;55.50;;;;;;4924435;28;89360;-71
2022/04/28 07:01:25;;;;;;;80.50;52.88;;;17.90;54.80;;;;;;4922869;28;89709;-73
2022/04/28 07:03:51;;;;;;;83.40;53.83;;;18.00;55.20;;;;;;4926377;28;90925;-72
2022/04/28 07:06:17;;;;;;;78.07;53.25;;;18.00;55.20;;;;;;4927305;28;92000;-71
2022/04/28 07:08:43;;;;;;;79.10;53.53;;;18.10;55.30;;;;;;4920605;28;92940;-72
2022/04/28 07:11:09;;;;;;;81.10;53.53;;;18.10;55.30;;;;;;4925517;28;89745;-73
2022/04/28 07:13:38;;;;;;;82.55;53.67;;;18.20;55.20;;;;;;4913154;28;90619;-72
2022/04/28 07:16:04;;;;;;;81.80;53.53;;;18.20;55.10;;;;;;4907909;28;91652;-73
2022/04/28 07:18:30;;;;;;;81.80;54.05;;;18.30;54.70;;;;;;4912306;28;90292;-73
2022/04/28 07:20:56;;;;;;;78.78;53.42;;;18.30;54.90;;;;;;4926845;28;89953;-73
2022/04/28 07:23:22;;;;;;;80.45;53.78;;;18.30;54.60;;;;;;4919197;28;89204;-74
2022/04/28 07:25:47;;;;;;;77.68;53.38;;;18.30;55.20;;;;;;4918324;28;92623;-73
2022/04/28 07:28:14;;;;;;;79.45;53.97;;;18.40;54.50;;;;;;4927776;28;90262;-73
2022/04/28 07:30:40;;;;;;;79.03;54.08;;;18.40;54.30;;;;;;4934034;28;91546;-73
2022/04/28 07:33:07;;;;;;;80.43;53.58;;;18.50;54.30;;;;;;4926246;28;90504;-73
2022/04/28 07:35:32;;;;;;;84.15;53.90;;;18.50;54.40;;;;;;4923089;28;95408;-74
2022/04/28 07:37:58;;;;;;;81.53;53.95;;;18.50;54.10;;;;;;4918191;28;90920;-73
2022/04/28 07:40:24;;;;;;;79.43;53.63;;;18.60;54.20;;;;;;4929699;28;91771;-74
2022/04/28 07:42:49;;;;;;;80.47;53.97;;;18.60;54.00;;;;;;4926271;28;91071;-74
2022/04/28 07:45:15;;;;;;;80.47;53.97;;;18.70;54.00;;;;;;4932995;28;92096;-73
2022/04/28 07:47:41;;;;;;;81.13;53.10;;;18.70;54.00;;;;;;4927816;28;90458;-72
2022/04/28 07:50:07;;;;;;;79.13;53.85;;;18.70;54.60;;;;;;4931054;28;94655;-73
2022/04/28 07:52:32;;;;;;;81.63;53.92;;;18.80;54.30;;;;;;4925246;28;90451;-72
2022/04/28 07:54:58;;;;;;;81.82;54.30;;;18.80;53.50;;;;;;4918558;28;91384;-74
2022/04/28 07:57:24;;;;;;;82.18;53.95;;;18.80;53.50;;;;;;4929234;28;90052;-71
2022/04/28 07:59:50;;;;;;;77.15;53.63;;;18.90;53.60;;;;;;4926359;28;90146;-71
2022/04/28 08:02:16;;;;;;;83.53;53.90;;;18.90;53.60;;;;;;4932804;28;91458;-72
2022/04/28 08:04:42;;;;;;;81.63;53.55;;;18.90;53.70;;;;;;4933297;28;91026;-73
2022/04/28 08:07:08;;;;;;;80.68;54.00;;;19.00;53.80;;;;;;4914546;28;90731;-72
2022/04/28 08:09:34;;;;;;;77.75;53.50;;;19.00;53.70;;;;;;4922344;28;95304;-72
2022/04/28 08:12:00;;;;;;;79.65;53.97;;;19.10;53.70;;;;;;4922974;28;89460;-72
2022/04/28 08:14:26;;;;;;;78.40;53.33;;;19.10;53.90;;;;;;4924168;28;90555;-74
2022/04/28 08:16:52;;;;;;;83.35;53.80;;;19.10;53.70;;;;;;4923784;28;93709;-72
2022/04/28 08:19:19;;;;;;;79.65;54.08;;;19.20;54.00;;;;;;4915306;28;91954;-75
2022/04/28 08:21:45;;;;;;;80.32;53.95;;;19.20;55.40;;;;;;4918822;28;92054;-73
2022/04/28 08:24:11;;;;;;;79.38;53.65;;;19.30;53.60;;;;;;4928752;28;90556;-74
2022/04/28 08:26:37;;;;;;;78.32;53.80;;;19.30;53.60;;;;;;4925833;28;91204;-74
2022/04/28 08:29:04;;;;;;;90.78;54.05;;;19.30;54.40;;;;;;4912558;28;91043;-74
2022/04/28 08:31:30;;;;;;;79.30;53.75;;;19.40;53.50;;;;;;4929486;28;90396;-73
2022/04/28 08:33:56;;;;;;;86.47;54.05;;;19.40;53.40;;;;;;4928345;28;99551;-74
2022/04/28 08:36:21;;;;;;;79.25;53.72;;;19.40;53.40;;;;;;4920134;28;97639;-73
2022/04/28 08:38:47;;;;;;;80.45;53.38;;;19.50;53.30;;;;;;4917841;28;95881;-75
2022/04/28 08:41:19;;;;;;;82.25;53.78;;;19.50;53.30;;;;;;4922971;28;95559;-74
2022/04/28 08:43:46;;;;;;;81.82;53.83;;;19.50;53.40;;;;;;4923107;28;102577;-73
2022/04/28 08:48:56;;;;;;;77.47;53.28;;;19.60;53.30;;;;;;4924917;28;95848;-74
2022/04/28 08:51:25;;;;;;;79.95;53.63;;;19.60;53.10;;;;;;4924315;28;95191;-73
2022/04/28 08:53:52;;;;;;;78.30;53.65;;;19.70;53.70;;;;;;4913931;28;99108;-73
2022/04/28 08:56:19;;;;;;;80.70;53.55;;;19.70;53.70;;;;;;4929921;28;95261;-73
2022/04/28 08:58:47;;;;;;;80.68;53.65;;;19.70;53.20;;;;;;4915549;28;101098;-74
2022/04/28 09:01:13;;;;;;;75.50;53.08;;;19.70;53.00;;;;;;4920983;28;94498;-72
2022/04/28 09:03:40;;;;;;;77.28;53.55;;;19.80;53.10;;;;;;4930024;28;95569;-74
2022/04/28 09:06:30;;;;;;;77.15;53.15;;;19.80;52.80;;;;;;4913603;28;95272;-75
2022/04/28 09:08:57;;;;;;;77.85;53.22;;;19.90;53.20;;;;;;4922745;28;96817;-75
2022/04/28 09:11:28;;;;;;;82.93;54.58;;;19.90;53.60;;;;;;4931093;28;95136;-72
2022/04/28 09:16:49;;;;;;;99.03;59.88;;;19.90;52.50;;;;;;4910788;28;95141;-74
2022/04/28 09:19:25;;;;;;;94.00;58.92;;;19.90;53.60;;;;;;4919237;28;95861;-72
2022/04/28 09:22:05;;;;;;;96.10;59.58;;;19.90;52.70;;;;;;4927778;28;96365;-73
2022/04/28 09:24:31;;;;;;;97.72;60.33;;;20.00;52.90;;;;;;4927983;28;95440;-73
2022/04/28 09:26:57;;;;;;;94.38;59.58;;;20.00;52.70;;;;;;4927996;28;97061;-73
2022/04/28 09:29:25;;;;;;;89.88;59.85;;;20.00;52.60;;;;;;4918750;28;95582;-73
2022/04/28 09:31:52;;;;;;;91.70;58.70;;;20.00;53.20;;;;;;4914406;28;95228;-73
2022/04/28 09:34:19;;;;;;;92.22;58.10;;;20.00;52.20;;;;;;4923431;28;96713;-73
2022/04/28 09:36:47;;;;;;;90.55;58.53;;;20.00;52.00;;;;;;4909002;28;96435;-72
2022/04/28 09:42:29;;;;;;;87.65;58.30;;;20.00;51.90;;;;;;4913137;28;95152;-72
2022/04/28 09:44:51;;;;;;;89.82;57.42;;;20.00;51.60;;;;;;4912029;28;95145;-73
2022/04/28 09:47:21;;;;;;;84.97;57.53;;;20.10;51.50;;;;;;4921224;28;96246;-72
2022/04/28 09:49:55;;;;;;;92.43;57.67;;;20.10;51.40;;;;;;4917547;28;95703;-73
2022/04/28 09:52:28;;;;;;;89.68;56.83;;;20.10;51.40;;;;;;4924907;28;94842;-73
2022/04/28 09:54:56;;;;;;;86.72;56.80;;;20.10;51.60;;;;;;4919966;28;96871;-72
2022/04/28 09:57:23;;;;;;;84.72;57.13;;;20.10;51.30;;;;;;4909817;28;98790;-72
2022/04/28 09:59:53;;;;;;;90.93;57.00;;;20.20;51.50;;;;;;4914504;28;97505;-72
2022/04/28 10:02:20;;;;;;;89.13;57.03;;;20.20;51.60;;;;;;4913198;28;100257;-73
2022/04/28 10:04:47;;;;;;;92.43;57.60;;;20.20;51.30;;;;;;4924389;28;99646;-73
2022/04/28 10:07:14;;;;;;;85.25;56.35;;;20.20;51.10;;;;;;4929990;28;95696;-73
2022/04/28 10:09:42;;;;;;;89.50;57.22;;;20.10;51.10;;;;;;4919504;28;95403;-72
2022/04/28 10:12:09;;;;;;;89.18;56.75;;;20.10;51.40;;;;;;4903454;28;96533;-72
2022/04/28 10:14:39;;;;;;;89.90;56.95;;;20.10;51.10;;;;;;4920998;28;95138;-72
2022/04/28 10:17:10;;;;;;;84.63;56.13;;;20.10;51.30;;;;;;4930360;28;94861;-72
2022/04/28 10:19:42;;;;;;;87.35;56.95;;;20.10;51.00;;;;;;4930762;28;94813;-72
2022/04/28 10:22:13;;;;;;;86.68;56.70;;;20.10;50.90;;;;;;4920503;28;96966;-72
2022/04/28 10:33:21;;;;;;;86.45;56.08;;;20.20;50.70;;;;;;4929944;28;98493;-72
2022/04/28 10:35:49;;;;;;;86.60;56.15;;;20.20;50.70;;;;;;4915175;28;97282;-72
2022/04/28 10:38:26;;;;;;;86.97;56.28;;;20.20;50.60;;;;;;4918514;28;97482;-70
2022/04/28 10:41:04;;;;;;;83.07;55.92;;;20.20;50.60;;;;;;4933118;28;95036;-72
2022/04/28 10:43:32;;;;;;;84.32;55.53;;;20.20;50.60;;;;;;4923483;28;95420;-72
2022/04/28 10:46:28;;;;;;;83.53;56.15;;;20.20;50.60;;;;;;4924408;28;94864;-72
2022/04/28 10:48:59;;;;;;;82.15;55.60;;;20.20;50.60;;;;;;4925543;28;95624;-72
2022/04/28 10:51:26;;;;;;;81.75;55.55;;;20.30;50.60;;;;;;4925227;28;96640;-72
2022/04/28 10:54:02;;;;;;;87.18;56.33;;;20.30;50.50;;;;;;4915369;28;95595;-72
2022/04/28 10:56:53;;;;;;;85.38;55.75;;;20.20;50.50;;;;;;4932238;28;94768;-72
2022/04/28 10:59:26;;;;;;;82.55;55.60;;;20.30;50.50;;;;;;4921477;28;97591;-72
2022/04/28 11:01:52;;;;;;;84.95;55.78;;;20.30;50.50;;;;;;4930917;28;94686;-72
2022/04/28 11:04:23;;;;;;;82.43;55.97;;;20.30;50.50;;;;;;4925483;28;97287;-72
2022/04/28 11:06:58;;;;;;;81.97;55.30;;;20.30;50.50;;;;;;4928360;28;95567;-72
2022/04/28 11:09:55;;;;;;;83.55;55.65;;;20.30;50.50;;;;;;4919447;28;96272;-72
2022/04/28 11:12:22;;;;;;;83.60;55.92;;;20.30;50.40;;;;;;4919559;28;97283;-72
2022/04/28 11:15:00;;;;;;;83.57;55.65;;;20.30;50.40;;;;;;4931030;28;94967;-72
2022/04/28 11:17:28;;;;;;;80.93;55.13;;;20.30;50.30;;;;;;4918661;28;96466;-72
2022/04/28 11:19:54;;;;;;;81.15;55.47;;;20.30;50.20;;;;;;4919157;28;95193;-71
2022/04/28 11:22:20;;;;;;;81.30;55.58;;;20.40;50.30;;;;;;4911187;28;95179;-71
2022/04/28 11:24:48;;;;;;;85.13;55.92;;;20.40;50.10;;;;;;4907973;28;98696;-71
2022/04/28 11:27:15;;;;;;;82.55;55.63;;;20.40;50.00;;;;;;4903574;28;96202;-71
2022/04/28 11:29:42;;;;;;;82.57;55.75;;;20.50;49.90;;;;;;4907915;28;99813;-72
2022/04/28 11:32:11;;;;;;;85.50;55.75;;;20.50;49.90;;;;;;4913912;28;96078;-72
2022/04/28 11:34:37;;;;;;;83.60;55.50;;;20.50;49.80;;;;;;4899664;28;102831;-72
2022/04/28 11:37:17;;;;;;;84.88;55.92;;;20.50;49.90;;;;;;4929198;28;96669;-72
2022/04/28 11:39:44;;;;;;;81.20;55.17;;;20.50;50.00;;;;;;4921517;28;94788;-72
2022/04/28 11:42:10;;;;;;;85.20;55.83;;;20.50;49.90;;;;;;4898816;28;99373;-74
2022/04/28 11:44:44;;;;;;;85.35;55.67;;;20.60;50.70;;;;;;4913962;28;101435;-72
2022/04/28 11:47:10;;;;;;;84.30;55.40;;;20.60;50.50;;;;;;4912002;28;95108;-74
2022/04/28 11:49:39;;;;;;;83.85;55.55;;;20.70;50.70;;;;;;4889290;28;98579;-72
2022/04/28 11:52:21;;;;;;;83.10;55.15;;;20.70;50.90;;;;;;4884636;28;96112;-74
2022/04/28 11:54:51;;;;;;;87.18;55.70;;;20.80;50.70;;;;;;4903479;28;95674;-75
2022/04/28 11:57:18;;;;;;;85.95;55.33;;;20.80;50.80;;;;;;4910789;28;95644;-73
2022/04/28 11:59:44;;;;;;;81.22;55.30;;;20.80;50.80;;;;;;4885228;28;101275;-73
2022/04/28 12:02:34;;;;;;;83.53;55.80;;;20.90;51.10;;;;;;4898384;28;95608;-73
2022/04/28 12:05:03;;;;;;;80.47;55.03;;;20.90;50.80;;;;;;4902136;28;94844;-74
2022/04/28 12:07:36;;;;;;;86.10;55.53;;;20.90;51.00;;;;;;4897651;28;98424;-73
2022/04/28 12:15:33;;;;;;;83.05;55.15;;;21.10;51.00;;;;;;4894312;28;95085;-74
2022/04/28 12:20:58;;;;;;;79.65;54.75;;;21.20;54.10;;;;;;4904216;28;94979;-77
2022/04/28 12:23:31;;;;;;;79.32;54.38;;;21.20;50.90;;;;;;4899940;28;95416;-75
2022/04/28 12:26:01;;;;;;;76.88;54.33;;;21.20;51.30;;;;;;4903258;28;94021;-77
2022/04/28 12:28:44;;;;;;;78.35;55.13;;;21.20;51.00;;;;;;4901885;28;97135;-76
2022/04/28 12:31:15;;;;;;;78.78;54.85;;;21.30;51.20;;;;;;4895169;28;96606;-76
2022/04/28 12:33:46;;;;;;;80.43;55.00;;;21.30;53.20;;;;;;4901043;28;97025;-75
2022/04/28 12:36:13;;;;;;;79.03;54.73;;;21.30;51.10;;;;;;4905275;28;96079;-75
2022/04/28 12:38:50;;;;;;;80.70;54.60;;;21.30;50.90;;;;;;4891584;28;97135;-74
2022/04/28 12:41:23;;;;;;;76.30;54.55;;;21.30;50.30;;;;;;4891133;28;96924;-74
2022/04/28 12:43:57;;;;;;;78.43;54.55;;;21.30;50.60;;;;;;4890256;28;96223;-75
2022/04/28 12:46:32;;;;;;;75.57;54.33;;;21.30;50.40;;;;;;4900212;28;95285;-77
2022/04/28 12:48:59;;;;;;;78.20;54.88;;;21.40;51.00;;;;;;4905469;28;96721;-76
2022/04/28 12:51:26;;;;;;;79.07;54.95;;;21.40;50.60;;;;;;4903811;28;96535;-76
2022/04/28 12:54:07;;;;;;;77.28;54.72;;;21.50;50.60;;;;;;4902446;28;95186;-75
2022/04/28 12:56:33;;;;;;;80.65;54.72;;;21.50;50.40;;;;;;4902587;28;100617;-76
2022/04/28 12:59:04;;;;;;;80.88;55.13;;;21.60;50.50;;;;;;4896977;28;98606;-76
2022/04/28 13:01:32;;;;;;;84.68;55.70;;;21.60;50.40;;;;;;4910760;28;95668;-75
2022/04/28 13:04:18;;;;;;;81.63;55.13;;;21.60;50.60;;;;;;4900637;28;100188;-77
2022/04/28 13:06:45;;;;;;;81.35;55.13;;;21.60;50.60;;;;;;4905425;28;97265;-77
2022/04/28 13:09:13;;;;;;;83.53;55.38;;;21.60;50.70;;;;;;4901304;28;96656;-75
2022/04/28 13:11:40;;;;;;;83.47;55.38;;;21.60;50.10;;;;;;4908334;28;96551;-76
2022/04/28 13:14:13;;;;;;;82.28;54.90;;;21.70;50.20;;;;;;4910066;28;94940;-76